Time;durP1;ratioP1;P1;durP2;ratioP2;P2;SDS_P1;SDS_P2;PMS_P1;PMS_P2;Temp;Humidity;BMP_temperature;BMP_pressure;BME280_temperature;BME280_humidity;BME280_pressure;Samples;Min_cycle;Max_cycle;Signal;HPM_P1;HPM_P2
2022/11/02 00:00:51;;;;;;;50.10;24.47;;;10.40;99.90;;;;;;4366497;28;659298;-70
2022/11/02 00:03:40;;;;;;;53.23;23.93;;;10.40;99.90;;;;;;4389820;28;660275;-71
2022/11/02 00:06:27;;;;;;;56.13;27.33;;;10.50;99.90;;;;;;4370768;28;659698;-70
2022/11/02 00:09:14;;;;;;;53.63;27.37;;;10.40;99.90;;;;;;4393919;28;658205;-70
2022/11/02 00:12:01;;;;;;;54.80;27.10;;;10.40;99.90;;;;;;4374718;28;659037;-70
2022/11/02 00:14:48;;;;;;;52.88;28.08;;;10.40;99.90;;;;;;4398796;28;659705;-70
2022/11/02 00:17:36;;;;;;;52.33;28.13;;;10.40;99.90;;;;;;4373552;28;658674;-70
2022/11/02 00:20:25;;;;;;;50.93;26.87;;;10.40;99.90;;;;;;4391921;28;661393;-70
2022/11/02 00:23:12;;;;;;;58.40;27.80;;;10.40;99.90;;;;;;4365879;28;660216;-70
2022/11/02 00:26:00;;;;;;;59.77;28.90;;;10.40;99.90;;;;;;4385839;28;658822;-71
2022/11/02 00:28:47;;;;;;;57.13;26.97;;;10.40;99.90;;;;;;4358258;28;660322;-70
2022/11/02 00:31:34;;;;;;;55.03;26.83;;;10.40;99.90;;;;;;4380292;28;658548;-70
2022/11/02 00:34:21;;;;;;;47.17;23.53;;;10.30;99.90;;;;;;4367622;28;658987;-70
2022/11/02 00:37:10;;;;;;;48.40;23.63;;;10.30;99.90;;;;;;4385707;28;659478;-70
2022/11/02 00:39:57;;;;;;;50.77;22.13;;;10.40;99.90;;;;;;4373350;28;659357;-70
2022/11/02 00:42:44;;;;;;;50.47;21.93;;;10.40;99.90;;;;;;4403712;28;659011;-70
2022/11/02 00:45:31;;;;;;;40.10;21.00;;;10.30;99.90;;;;;;4381644;28;658666;-70
2022/11/02 00:48:18;;;;;;;40.63;21.13;;;10.40;99.90;;;;;;4412028;28;660007;-70
2022/11/02 00:51:06;;;;;;;44.70;20.93;;;10.30;99.90;;;;;;4392730;28;658613;-70
2022/11/02 00:53:54;;;;;;;37.37;19.63;;;10.40;99.90;;;;;;4413323;28;659524;-70
2022/11/02 00:56:42;;;;;;;46.20;22.10;;;10.30;99.90;;;;;;4384724;28;658812;-70
2022/11/02 00:59:29;;;;;;;42.37;20.73;;;10.20;99.90;;;;;;4409444;28;657926;-70
2022/11/02 01:02:16;;;;;;;38.03;20.10;;;10.30;99.90;;;;;;4393123;28;658918;-70
2022/11/02 01:05:03;;;;;;;37.70;19.53;;;10.20;99.90;;;;;;4410000;28;660422;-71
2022/11/02 01:07:52;;;;;;;41.70;19.97;;;10.20;99.90;;;;;;4393569;28;658579;-70
2022/11/02 01:10:40;;;;;;;40.27;20.13;;;10.10;99.90;;;;;;4412265;28;659267;-70
2022/11/02 01:13:27;;;;;;;43.50;20.60;;;10.20;99.90;;;;;;4388101;28;659867;-70
2022/11/02 01:16:14;;;;;;;43.13;20.87;;;10.10;99.90;;;;;;4412532;28;658440;-71
2022/11/02 01:19:02;;;;;;;41.30;21.27;;;10.10;99.90;;;;;;4390962;28;658997;-71
2022/11/02 01:21:49;;;;;;;45.90;21.53;;;10.10;99.90;;;;;;4413454;28;659494;-71
2022/11/02 01:24:36;;;;;;;42.80;20.03;;;10.00;99.90;;;;;;4386725;28;659210;-70
2022/11/02 01:27:24;;;;;;;43.00;21.23;;;10.10;99.90;;;;;;4407450;28;659185;-70
2022/11/02 01:30:13;;;;;;;42.90;20.77;;;10.10;99.90;;;;;;4391891;28;659106;-70
2022/11/02 01:33:00;;;;;;;46.20;21.23;;;10.20;99.90;;;;;;4408432;28;659222;-70
2022/11/02 01:35:47;;;;;;;39.57;20.23;;;10.20;99.90;;;;;;4419560;28;660255;-70
2022/11/02 01:38:34;;;;;;;40.80;20.47;;;10.20;99.90;;;;;;4405447;28;659306;-71
2022/11/02 01:41:22;;;;;;;48.80;21.83;;;10.20;99.90;;;;;;4393182;28;658686;-70
2022/11/02 01:44:28;;;;;;;43.77;20.67;;;10.10;99.90;;;;;;4408460;28;659540;-71
2022/11/02 01:47:19;;;;;;;47.00;20.43;;;10.20;99.90;;;;;;4375046;28;659261;-71
2022/11/02 01:50:08;;;;;;;47.03;20.60;;;10.20;99.90;;;;;;4393617;28;658601;-70
2022/11/02 01:52:55;;;;;;;37.80;21.00;;;10.20;99.90;;;;;;4390678;28;659294;-70
2022/11/02 01:55:42;;;;;;;41.40;20.93;;;10.20;99.90;;;;;;4416915;28;659246;-71
2022/11/02 01:58:33;;;;;;;47.33;21.40;;;10.30;99.90;;;;;;4408759;28;658897;-71
2022/11/02 02:01:22;;;;;;;41.43;21.23;;;10.30;99.90;;;;;;4361759;28;659254;-70
2022/11/02 02:04:09;;;;;;;43.53;20.80;;;10.30;99.90;;;;;;4407111;28;658682;-71
2022/11/02 02:06:56;;;;;;;43.30;20.60;;;10.30;99.90;;;;;;4384326;28;658463;-70
2022/11/02 02:09:43;;;;;;;43.83;20.37;;;10.30;99.90;;;;;;4398542;28;659531;-70
2022/11/02 02:12:31;;;;;;;37.03;18.10;;;10.30;99.90;;;;;;4388162;28;658680;-70
2022/11/02 02:15:18;;;;;;;45.33;20.23;;;10.40;99.90;;;;;;4409250;28;659888;-70
2022/11/02 02:18:09;;;;;;;41.57;19.30;;;10.40;99.90;;;;;;4385727;28;658809;-70
2022/11/02 02:21:12;;;;;;;40.73;19.83;;;10.30;99.90;;;;;;4384540;28;658646;-70
2022/11/02 02:24:09;;;;;;;43.03;20.30;;;10.20;99.90;;;;;;4377102;28;660604;-71
2022/11/02 02:27:06;;;;;;;42.77;21.53;;;10.20;99.90;;;;;;4377256;28;658751;-71
2022/11/02 02:30:04;;;;;;;44.50;20.50;;;10.20;99.90;;;;;;4381880;28;659044;-70
2022/11/02 02:32:54;;;;;;;44.27;20.97;;;10.20;99.90;;;;;;4357819;28;659613;-71
2022/11/02 02:35:42;;;;;;;46.47;20.27;;;10.10;99.90;;;;;;4380721;28;659215;-70
2022/11/02 02:38:32;;;;;;;41.83;21.57;;;10.10;99.90;;;;;;4394471;28;658793;-71
2022/11/02 02:41:21;;;;;;;48.20;21.37;;;10.20;99.90;;;;;;4406213;28;658633;-71
2022/11/02 02:44:10;;;;;;;43.67;20.57;;;10.20;99.90;;;;;;4380556;28;659407;-70
2022/11/02 02:47:00;;;;;;;39.80;20.70;;;10.20;99.90;;;;;;4386875;28;659679;-71
2022/11/02 02:49:49;;;;;;;39.73;19.87;;;10.20;99.90;;;;;;4377743;28;660057;-70
2022/11/02 02:52:36;;;;;;;37.33;20.50;;;10.20;99.90;;;;;;4383588;28;658181;-71
2022/11/02 02:55:26;;;;;;;40.83;20.90;;;10.20;99.90;;;;;;4400821;28;659983;-71
2022/11/02 02:58:15;;;;;;;40.47;21.00;;;10.20;99.90;;;;;;4378079;28;659860;-71
2022/11/02 03:01:02;;;;;;;45.50;20.97;;;10.20;99.90;;;;;;4384754;28;659259;-71
2022/11/02 03:03:51;;;;;;;44.80;21.23;;;10.10;99.90;;;;;;4403856;28;658299;-71
2022/11/02 03:06:38;;;;;;;45.97;21.77;;;10.10;99.90;;;;;;4387989;28;659643;-70
2022/11/02 03:09:29;;;;;;;50.93;22.53;;;10.10;99.90;;;;;;4378963;28;658615;-70
2022/11/02 03:12:21;;;;;;;47.42;22.60;;;10.10;99.90;;;;;;4389134;28;658650;-71
2022/11/02 03:15:10;;;;;;;40.50;21.00;;;10.10;99.90;;;;;;4385738;28;659633;-71
2022/11/02 03:18:01;;;;;;;45.30;21.43;;;10.10;99.90;;;;;;4379836;28;660615;-71
2022/11/02 03:20:55;;;;;;;49.50;21.30;;;10.00;99.90;;;;;;4381287;28;658956;-71
2022/11/02 03:23:46;;;;;;;50.27;21.70;;;10.00;99.90;;;;;;4361294;28;659042;-71
2022/11/02 03:26:36;;;;;;;47.63;21.70;;;9.90;99.90;;;;;;4383652;28;659403;-71
2022/11/02 03:29:25;;;;;;;41.90;20.27;;;9.80;99.90;;;;;;4386848;28;659083;-71
2022/11/02 03:32:13;;;;;;;48.47;22.37;;;9.80;99.90;;;;;;4391235;28;658176;-70
2022/11/02 03:35:03;;;;;;;49.63;23.40;;;9.70;99.90;;;;;;4387597;28;658151;-70
2022/11/02 03:37:54;;;;;;;46.27;20.90;;;9.60;99.90;;;;;;4391277;28;657769;-70
2022/11/02 03:40:43;;;;;;;40.67;21.17;;;9.60;99.90;;;;;;4383321;28;657977;-71
2022/11/02 03:43:30;;;;;;;48.30;22.80;;;9.50;99.90;;;;;;4396883;28;657645;-70
2022/11/02 03:46:17;;;;;;;46.57;22.10;;;9.40;99.90;;;;;;4412432;28;657750;-71
2022/11/02 03:49:06;;;;;;;46.83;22.20;;;9.40;99.90;;;;;;4407709;28;657637;-70
2022/11/02 03:51:53;;;;;;;43.67;20.83;;;9.40;99.90;;;;;;4413354;28;658414;-71
2022/11/02 03:54:43;;;;;;;44.97;21.33;;;9.30;99.90;;;;;;4386810;28;657748;-71
2022/11/02 03:57:33;;;;;;;53.20;24.00;;;9.30;99.90;;;;;;4385342;28;657628;-70
2022/11/02 04:00:21;;;;;;;57.23;26.03;;;9.40;99.90;;;;;;4387476;28;657418;-71
2022/11/02 04:03:09;;;;;;;56.57;25.93;;;9.30;99.90;;;;;;4412433;28;657606;-71
2022/11/02 04:05:56;;;;;;;53.40;23.90;;;9.30;99.90;;;;;;4390353;28;657529;-71
2022/11/02 04:08:44;;;;;;;59.07;26.00;;;9.20;99.90;;;;;;4410614;28;657574;-71
2022/11/02 04:14:37;;;;;;;56.13;25.43;;;9.20;99.90;;;;;;4354129;28;657725;-71
2022/11/02 04:20:30;;;;;;;64.03;28.87;;;9.30;99.90;;;;;;4368283;28;657404;-70
2022/11/02 04:26:22;;;;;;;77.17;31.73;;;9.20;99.90;;;;;;4359074;28;659379;-71
2022/11/02 04:29:11;;;;;;;86.22;33.17;;;9.20;99.90;;;;;;4407410;28;657924;-71
2022/11/02 04:31:58;;;;;;;79.27;32.23;;;9.20;99.90;;;;;;4388450;28;658439;-71
2022/11/02 04:34:44;;;;;;;84.53;35.17;;;9.20;99.90;;;;;;4385905;28;657706;-70
2022/11/02 04:40:36;;;;;;;82.40;34.10;;;9.30;99.90;;;;;;4386091;28;657939;-71
2022/11/02 04:43:23;;;;;;;84.75;34.92;;;9.40;99.90;;;;;;4405701;28;658431;-72
2022/11/02 04:46:12;;;;;;;90.07;37.13;;;9.40;99.90;;;;;;4389152;28;659164;-71
2022/11/02 04:48:59;;;;;;;103.20;41.27;;;9.30;99.90;;;;;;4402927;28;657449;-72
2022/11/02 04:51:46;;;;;;;107.60;40.43;;;9.30;99.90;;;;;;4385478;28;658840;-71
2022/11/02 04:54:33;;;;;;;103.57;42.38;;;9.30;99.90;;;;;;4407951;28;659053;-71
2022/11/02 04:57:20;;;;;;;99.43;41.37;;;9.30;99.90;;;;;;4390260;28;658447;-71
2022/11/02 05:00:09;;;;;;;101.80;41.90;;;9.40;99.90;;;;;;4407423;28;658884;-71
2022/11/02 05:02:57;;;;;;;105.60;41.73;;;9.40;99.90;;;;;;4390738;28;658601;-71
2022/11/02 05:05:44;;;;;;;101.00;41.30;;;9.40;99.90;;;;;;4404458;28;658641;-71
2022/11/02 05:08:31;;;;;;;115.53;44.07;;;9.50;99.90;;;;;;4383015;28;658439;-71
2022/11/02 05:11:19;;;;;;;118.47;44.37;;;9.50;99.90;;;;;;4400456;28;659138;-72
2022/11/02 05:14:06;;;;;;;121.67;43.53;;;9.40;99.90;;;;;;4381765;28;659634;-71
2022/11/02 05:16:53;;;;;;;114.93;44.43;;;9.40;99.90;;;;;;4406615;28;659359;-71
2022/11/02 05:19:42;;;;;;;112.60;43.47;;;9.40;99.90;;;;;;4385238;28;658708;-71
2022/11/02 05:22:30;;;;;;;106.53;40.73;;;9.50;99.90;;;;;;4404757;28;658717;-72
2022/11/02 05:25:17;;;;;;;102.53;39.23;;;9.50;99.90;;;;;;4383992;28;659637;-71
2022/11/02 05:28:04;;;;;;;108.27;40.93;;;9.50;99.90;;;;;;4402170;28;658978;-71
2022/11/02 05:30:52;;;;;;;127.30;43.10;;;9.50;99.90;;;;;;4383262;28;659203;-72
2022/11/02 05:33:39;;;;;;;124.77;43.50;;;9.50;99.90;;;;;;4402957;28;659094;-70
2022/11/02 05:36:27;;;;;;;116.77;43.50;;;9.50;99.90;;;;;;4387020;28;658992;-71
2022/11/02 05:39:14;;;;;;;118.67;43.73;;;9.60;99.90;;;;;;4406544;28;658743;-71
2022/11/02 05:42:02;;;;;;;120.40;43.27;;;9.50;99.90;;;;;;4385167;28;659146;-71
2022/11/02 05:44:49;;;;;;;114.87;41.87;;;9.50;99.90;;;;;;4399358;28;659250;-71
2022/11/02 05:47:36;;;;;;;125.37;44.77;;;9.60;99.90;;;;;;4391666;28;658744;-71
2022/11/02 05:50:23;;;;;;;132.20;45.93;;;9.60;99.90;;;;;;4407646;28;659635;-71
2022/11/02 05:53:12;;;;;;;129.03;46.37;;;9.60;99.90;;;;;;4389879;28;658317;-71
2022/11/02 05:55:59;;;;;;;111.50;35.73;;;9.60;99.90;;;;;;4406450;28;658732;-71
2022/11/02 05:58:46;;;;;;;145.37;42.80;;;9.60;99.90;;;;;;4385478;28;659167;-71
2022/11/02 06:01:33;;;;;;;142.60;42.50;;;9.50;99.90;;;;;;4403655;28;659549;-71
2022/11/02 06:04:20;;;;;;;133.97;45.23;;;9.50;99.90;;;;;;4387442;28;658756;-71
2022/11/02 06:07:08;;;;;;;158.70;43.63;;;9.60;99.90;;;;;;4412212;28;659383;-71
2022/11/02 06:09:57;;;;;;;131.98;43.50;;;9.50;99.90;;;;;;4393092;28;658713;-70
2022/11/02 06:12:44;;;;;;;130.33;41.93;;;9.60;99.90;;;;;;4407703;28;658383;-71
2022/11/02 06:15:32;;;;;;;131.67;42.13;;;9.50;99.90;;;;;;4386300;28;658856;-70
2022/11/02 06:18:20;;;;;;;127.50;41.67;;;9.50;99.90;;;;;;4404773;28;658940;-70
2022/11/02 06:21:07;;;;;;;122.60;40.28;;;9.60;99.90;;;;;;4415834;28;658279;-71
2022/11/02 06:23:54;;;;;;;128.33;40.73;;;9.60;99.90;;;;;;4406385;28;659192;-71
2022/11/02 06:26:45;;;;;;;129.47;39.73;;;9.70;99.90;;;;;;4389203;28;658679;-71
2022/11/02 06:29:32;;;;;;;120.67;38.83;;;9.60;99.90;;;;;;4388932;28;658803;-71
2022/11/02 06:32:19;;;;;;;116.40;38.03;;;9.60;99.90;;;;;;4402851;28;658502;-71
2022/11/02 06:35:07;;;;;;;122.23;39.20;;;9.70;99.90;;;;;;4386937;28;659392;-71
2022/11/02 06:37:54;;;;;;;124.43;37.10;;;9.80;99.90;;;;;;4404838;28;658818;-71
2022/11/02 06:40:42;;;;;;;118.10;34.77;;;9.90;99.90;;;;;;4387105;28;659452;-70
2022/11/02 06:43:30;;;;;;;116.83;32.47;;;10.00;99.90;;;;;;4404585;28;658639;-71
2022/11/02 06:46:17;;;;;;;142.50;35.77;;;9.90;99.90;;;;;;4387595;28;660553;-71
2022/11/02 06:49:04;;;;;;;109.53;34.43;;;9.90;99.90;;;;;;4406532;28;658268;-71
2022/11/02 06:51:52;;;;;;;111.70;34.43;;;9.90;99.90;;;;;;4389480;28;658497;-71
2022/11/02 06:54:39;;;;;;;113.60;33.33;;;9.80;99.90;;;;;;4406874;28;658599;-71
2022/11/02 06:57:26;;;;;;;105.40;32.43;;;9.90;99.90;;;;;;4392660;28;658764;-70
2022/11/02 07:00:16;;;;;;;106.72;32.15;;;9.90;99.90;;;;;;4411347;28;659857;-71
2022/11/02 07:03:04;;;;;;;101.67;32.50;;;10.00;99.90;;;;;;4391457;28;658800;-71
2022/11/02 07:05:51;;;;;;;94.93;31.97;;;10.10;99.90;;;;;;4387690;28;659276;-71
2022/11/02 07:08:39;;;;;;;92.73;30.50;;;10.10;99.90;;;;;;4407097;28;659480;-71
2022/11/02 07:11:26;;;;;;;136.50;32.10;;;10.20;99.90;;;;;;4385851;28;658483;-71
2022/11/02 07:14:13;;;;;;;103.73;32.37;;;10.30;99.90;;;;;;4403199;28;661056;-71
2022/11/02 07:17:01;;;;;;;133.53;32.83;;;10.30;99.90;;;;;;4390693;28;660208;-70
2022/11/02 07:19:49;;;;;;;119.90;29.67;;;10.50;99.90;;;;;;4407876;28;659462;-71
2022/11/02 07:22:36;;;;;;;116.80;31.30;;;10.70;99.90;;;;;;4387008;28;659595;-71
2022/11/02 07:25:23;;;;;;;111.33;31.73;;;10.90;99.90;;;;;;4411593;28;660745;-70
2022/11/02 07:28:10;;;;;;;123.83;31.70;;;10.70;99.90;;;;;;4385700;28;659828;-70
2022/11/02 07:30:57;;;;;;;153.20;32.77;;;10.80;99.90;;;;;;4408682;28;660178;-70
2022/11/02 07:33:46;;;;;;;223.33;32.37;;;11.00;99.90;;;;;;4398404;28;659894;-70
2022/11/02 07:36:34;;;;;;;164.07;31.37;;;10.80;99.90;;;;;;4410628;28;660289;-70
2022/11/02 07:39:21;;;;;;;150.17;34.67;;;10.90;99.90;;;;;;4385588;28;659805;-70
2022/11/02 07:42:08;;;;;;;203.90;35.17;;;10.90;99.90;;;;;;4405448;28;660312;-70
2022/11/02 07:44:55;;;;;;;148.63;36.77;;;10.90;99.90;;;;;;4384202;28;661483;-70
2022/11/02 07:47:43;;;;;;;143.20;37.93;;;10.80;99.90;;;;;;4404643;28;658997;-70
2022/11/02 07:50:32;;;;;;;231.73;45.77;;;10.90;99.90;;;;;;4376511;28;659570;-71
2022/11/02 07:53:19;;;;;;;254.90;46.80;;;10.80;99.90;;;;;;4405252;28;659446;-71
2022/11/02 07:56:07;;;;;;;232.40;52.53;;;10.70;99.90;;;;;;4384230;28;661625;-71
2022/11/02 07:58:54;;;;;;;212.10;47.37;;;10.90;99.90;;;;;;4400054;28;660430;-70
2022/11/02 08:01:41;;;;;;;177.75;46.20;;;10.80;99.90;;;;;;4385684;28;660813;-70
2022/11/02 08:04:28;;;;;;;147.63;45.27;;;10.80;99.90;;;;;;4397924;28;660440;-71
2022/11/02 08:07:17;;;;;;;153.50;44.47;;;11.00;99.90;;;;;;4385067;28;659667;-71
2022/11/02 08:10:05;;;;;;;137.40;41.23;;;11.20;99.90;;;;;;4395834;28;659767;-71
2022/11/02 08:12:52;;;;;;;111.63;34.90;;;11.40;99.90;;;;;;4377338;28;660881;-70
2022/11/02 08:15:39;;;;;;;122.33;37.47;;;11.30;99.90;;;;;;4403021;28;660223;-71
2022/11/02 08:18:27;;;;;;;121.77;37.97;;;11.20;99.90;;;;;;4387476;28;660727;-70
2022/11/02 08:21:14;;;;;;;119.53;37.63;;;11.10;99.90;;;;;;4406656;28;660429;-70
2022/11/02 08:24:02;;;;;;;115.40;36.77;;;11.40;99.90;;;;;;4383403;28;659855;-70
2022/11/02 08:26:50;;;;;;;119.83;37.97;;;11.30;99.90;;;;;;4402460;28;659975;-70
2022/11/02 08:29:37;;;;;;;124.23;37.63;;;11.30;99.90;;;;;;4402595;28;660536;-71
2022/11/02 08:32:25;;;;;;;121.33;37.57;;;11.20;99.90;;;;;;4404119;28;659825;-70
2022/11/02 08:35:13;;;;;;;122.27;38.93;;;11.40;99.90;;;;;;4405619;28;661201;-71
2022/11/02 08:38:00;;;;;;;118.22;39.92;;;11.80;99.90;;;;;;4387488;28;661254;-70
2022/11/02 08:40:49;;;;;;;115.47;41.33;;;11.90;99.90;;;;;;4402997;28;660362;-71
2022/11/02 08:43:36;;;;;;;105.63;35.40;;;12.10;99.90;;;;;;4383600;28;660414;-70
2022/11/02 08:46:23;;;;;;;103.43;36.67;;;12.40;99.90;;;;;;4401264;28;660793;-70
2022/11/02 08:49:10;;;;;;;99.63;36.70;;;12.40;99.90;;;;;;4383131;28;660879;-71
2022/11/02 08:51:57;;;;;;;95.50;35.83;;;12.60;99.90;;;;;;4403175;28;659855;-70
2022/11/02 08:54:45;;;;;;;82.60;33.10;;;13.20;99.90;;;;;;4400823;28;658519;-70
2022/11/02 08:57:34;;;;;;;75.87;32.07;;;13.40;99.90;;;;;;4415139;28;658422;-70
2022/11/02 09:00:22;;;;;;;78.93;31.37;;;13.90;99.90;;;;;;4389755;28;658543;-70
2022/11/02 09:03:10;;;;;;;80.77;32.03;;;13.50;99.90;;;;;;4399609;28;658925;-70
2022/11/02 09:05:58;;;;;;;71.83;31.57;;;13.60;99.90;;;;;;4379877;28;659948;-70
2022/11/02 09:08:45;;;;;;;73.23;29.27;;;13.80;99.90;;;;;;4384266;28;658546;-71
2022/11/02 09:11:32;;;;;;;71.23;30.77;;;14.20;99.90;;;;;;4406850;28;659592;-70
2022/11/02 09:14:21;;;;;;;70.43;30.27;;;14.20;99.90;;;;;;4407224;28;659209;-70
2022/11/02 09:17:09;;;;;;;76.07;33.47;;;14.50;99.90;;;;;;4408858;28;659187;-71
2022/11/02 09:19:56;;;;;;;71.20;30.83;;;14.90;99.90;;;;;;4388653;28;658740;-71
2022/11/02 09:22:43;;;;;;;71.27;30.40;;;15.30;99.90;;;;;;4408242;28;658108;-70
2022/11/02 09:25:30;;;;;;;62.57;27.63;;;15.80;99.90;;;;;;4385883;28;658335;-70
2022/11/02 09:28:17;;;;;;;63.83;27.63;;;16.10;99.90;;;;;;4410466;28;658190;-70
2022/11/02 09:31:06;;;;;;;54.07;24.03;;;15.70;99.90;;;;;;4407535;28;659081;-70
2022/11/02 09:33:53;;;;;;;44.63;20.07;;;15.60;99.90;;;;;;4380446;28;659477;-69
2022/11/02 09:36:40;;;;;;;45.90;22.50;;;15.90;99.90;;;;;;4391580;28;658585;-69
2022/11/02 09:39:27;;;;;;;43.40;20.73;;;15.40;99.90;;;;;;4403478;28;660266;-70
2022/11/02 09:42:18;;;;;;;43.50;20.90;;;15.10;99.90;;;;;;4403299;28;659398;-70
2022/11/02 09:45:06;;;;;;;32.53;16.40;;;15.00;99.90;;;;;;4388016;28;658979;-70
2022/11/02 09:47:56;;;;;;;24.90;12.13;;;15.40;99.90;;;;;;4407631;28;659317;-70
2022/11/02 09:50:46;;;;;;;29.30;14.10;;;15.70;99.90;;;;;;4385678;28;659725;-69
2022/11/02 09:53:39;;;;;;;28.73;14.83;;;15.70;99.90;;;;;;4381915;28;659577;-70
2022/11/02 09:56:26;;;;;;;28.23;13.97;;;15.60;99.90;;;;;;4387108;28;658257;-71
2022/11/02 09:59:15;;;;;;;26.83;12.97;;;15.30;99.90;;;;;;4407147;28;659681;-70
2022/11/02 10:02:05;;;;;;;23.57;10.07;;;16.10;99.90;;;;;;4375049;28;660701;-71
2022/11/02 10:05:14;;;;;;;22.77;11.07;;;16.40;99.90;;;;;;4383022;28;659786;-71
2022/11/02 10:08:14;;;;;;;19.77;10.23;;;16.00;99.90;;;;;;4359950;28;659345;-72
2022/11/02 10:11:07;;;;;;;22.03;10.50;;;17.00;99.90;;;;;;4357955;28;659965;-71
2022/11/02 10:13:55;;;;;;;23.53;10.83;;;16.80;99.90;;;;;;4383827;28;659797;-73
2022/11/02 10:16:46;;;;;;;21.67;10.47;;;16.20;99.90;;;;;;4386731;28;659218;-70
2022/11/02 10:19:33;;;;;;;20.03;10.30;;;16.40;99.90;;;;;;4386558;28;659679;-71
2022/11/02 10:22:22;;;;;;;18.23;9.13;;;16.90;99.90;;;;;;4389300;28;659130;-70
2022/11/02 10:25:11;;;;;;;21.57;10.30;;;16.90;99.90;;;;;;4408712;28;658382;-72
2022/11/02 10:28:03;;;;;;;18.70;10.33;;;16.80;99.90;;;;;;4385918;28;659218;-72
2022/11/02 10:30:51;;;;;;;19.87;8.83;;;16.70;99.90;;;;;;4393777;28;658941;-71
2022/11/02 10:33:39;;;;;;;15.67;7.57;;;16.80;99.90;;;;;;4402601;28;657369;-72
2022/11/02 10:36:35;;;;;;;16.80;8.00;;;16.80;99.90;;;;;;4383397;28;657781;-71
2022/11/02 10:39:27;;;;;;;19.13;9.30;;;16.40;99.90;;;;;;4381707;28;658144;-70
2022/11/02 10:42:36;;;;;;;23.57;8.73;;;16.70;99.90;;;;;;4383300;28;657434;-71
2022/11/02 10:45:38;;;;;;;17.13;9.37;;;17.80;99.90;;;;;;4384420;28;658830;-70
2022/11/02 10:48:33;;;;;;;19.13;9.00;;;17.00;99.90;;;;;;4364037;28;657797;-70
2022/11/02 10:51:20;;;;;;;20.10;8.87;;;17.60;99.90;;;;;;4372164;28;657912;-71
2022/11/02 10:54:11;;;;;;;23.47;8.63;;;18.40;99.90;;;;;;4400608;28;659167;-71
2022/11/02 10:57:01;;;;;;;14.13;7.40;;;18.80;99.90;;;;;;4382752;28;658086;-71
2022/11/02 11:00:07;;;;;;;11.90;4.87;;;18.60;97.10;;;;;;4382716;28;658643;-70
2022/11/02 11:03:09;;;;;;;9.73;4.90;;;18.10;96.90;;;;;;4377887;28;658134;-71
2022/11/02 11:05:59;;;;;;;10.90;4.90;;;17.60;96.90;;;;;;4358841;28;658313;-73
2022/11/02 11:08:48;;;;;;;10.07;5.33;;;17.50;95.60;;;;;;4387239;28;657531;-70
2022/11/02 11:11:36;;;;;;;6.63;3.40;;;17.00;99.90;;;;;;4387403;28;657541;-71
2022/11/02 11:14:26;;;;;;;9.97;4.43;;;17.20;96.70;;;;;;4404892;28;657249;-71
2022/11/02 11:17:14;;;;;;;5.10;3.00;;;16.50;97.80;;;;;;4385120;28;658222;-71
2022/11/02 11:20:02;;;;;;;9.10;4.30;;;16.50;95.30;;;;;;4385685;28;656989;-70
2022/11/02 11:22:51;;;;;;;7.23;3.30;;;16.60;96.20;;;;;;4396834;28;656234;-70
2022/11/02 11:25:39;;;;;;;7.83;3.63;;;17.50;93.20;;;;;;4397195;28;657571;-71
2022/11/02 11:28:28;;;;;;;6.57;3.13;;;17.40;92.80;;;;;;4384963;28;656546;-70
2022/11/02 11:31:17;;;;;;;5.47;3.00;;;17.80;91.80;;;;;;4393357;28;656553;-69
2022/11/02 11:34:05;;;;;;;11.17;2.93;;;18.20;90.20;;;;;;4413912;28;656997;-70
2022/11/02 11:36:52;;;;;;;5.37;2.80;;;17.20;88.80;;;;;;4388100;28;658472;-70
2022/11/02 11:39:40;;;;;;;4.60;2.90;;;17.50;89.30;;;;;;4404626;28;656525;-70
2022/11/02 11:42:28;;;;;;;5.30;2.53;;;17.50;89.70;;;;;;4384672;28;657689;-70
2022/11/02 11:45:20;;;;;;;7.70;3.23;;;18.30;86.60;;;;;;4397410;28;656710;-70
2022/11/02 11:48:23;;;;;;;6.83;3.43;;;18.80;83.60;;;;;;4379240;28;657467;-70
2022/11/02 11:51:26;;;;;;;6.60;3.20;;;19.60;81.30;;;;;;4389569;28;657618;-71
2022/11/02 11:54:24;;;;;;;6.53;2.87;;;19.60;79.10;;;;;;4392120;28;656790;-70
2022/11/02 11:57:22;;;;;;;8.83;3.37;;;19.10;78.80;;;;;;4389037;28;656688;-72
2022/11/02 12:00:26;;;;;;;9.17;3.67;;;17.90;80.20;;;;;;4389606;28;657669;-70
2022/11/02 12:03:15;;;;;;;7.53;3.50;;;17.70;83.30;;;;;;4387638;28;656763;-70
2022/11/02 12:06:05;;;;;;;7.80;3.27;;;17.90;84.70;;;;;;4390181;28;657525;-70
2022/11/02 12:08:54;;;;;;;6.53;3.53;;;18.20;82.60;;;;;;4391114;28;656538;-70
2022/11/02 12:11:47;;;;;;;5.83;3.27;;;19.40;82.40;;;;;;4383158;28;656845;-70
2022/11/02 12:14:41;;;;;;;6.33;3.30;;;21.20;70.60;;;;;;4390991;28;656940;-70
2022/11/02 12:17:37;;;;;;;7.80;4.20;;;21.10;67.80;;;;;;4391618;28;656821;-70
2022/11/02 12:20:51;;;;;;;7.80;3.87;;;20.60;68.10;;;;;;4389286;28;657356;-70
2022/11/02 12:23:47;;;;;;;7.53;3.80;;;18.00;75.30;;;;;;4383672;28;656855;-70
2022/11/02 12:26:41;;;;;;;9.13;3.97;;;17.40;80.80;;;;;;4387851;28;656933;-71
2022/11/02 12:29:52;;;;;;;7.67;4.27;;;17.50;86.30;;;;;;4382143;28;657830;-71
2022/11/02 12:32:48;;;;;;;9.37;4.57;;;17.90;81.40;;;;;;4385082;28;656809;-71
2022/11/02 12:35:50;;;;;;;14.57;4.70;;;19.20;77.90;;;;;;4392335;28;657000;-70
2022/11/02 12:38:51;;;;;;;8.03;4.43;;;19.40;76.20;;;;;;4385236;28;657596;-71
2022/11/02 12:41:52;;;;;;;8.27;4.43;;;20.50;72.10;;;;;;4388544;28;656666;-71
2022/11/02 12:44:52;;;;;;;8.77;4.47;;;21.20;69.90;;;;;;4384714;28;657134;-70
2022/11/02 12:47:47;;;;;;;8.67;4.60;;;21.30;68.80;;;;;;4383123;28;656515;-71
2022/11/02 12:50:44;;;;;;;8.97;4.97;;;20.70;69.50;;;;;;4377314;28;656499;-70
2022/11/02 12:53:40;;;;;;;10.27;5.30;;;21.80;65.00;;;;;;4388769;28;657054;-71
2022/11/02 12:56:30;;;;;;;15.43;5.63;;;21.70;65.80;;;;;;4393062;28;658167;-71
2022/11/02 12:59:21;;;;;;;11.43;5.50;;;22.30;63.80;;;;;;4385605;28;658854;-71
2022/11/02 13:02:11;;;;;;;12.73;5.93;;;23.80;61.40;;;;;;4385582;28;658115;-71
2022/11/02 13:04:59;;;;;;;15.00;5.40;;;23.70;58.50;;;;;;4386982;28;658402;-70
2022/11/02 13:07:49;;;;;;;13.15;6.13;;;24.30;58.00;;;;;;4383907;28;657820;-71
2022/11/02 13:10:40;;;;;;;13.27;6.13;;;24.30;57.30;;;;;;4389893;28;657336;-71
2022/11/02 13:13:30;;;;;;;11.45;6.18;;;23.00;57.40;;;;;;4387874;28;658202;-71
2022/11/02 13:16:18;;;;;;;13.45;6.53;;;23.40;59.90;;;;;;4388517;28;658068;-70
2022/11/02 13:19:05;;;;;;;11.63;5.60;;;24.00;57.30;;;;;;4391454;28;658041;-71
2022/11/02 13:21:54;;;;;;;11.07;5.22;;;23.30;57.80;;;;;;4411629;28;658445;-71
2022/11/02 13:24:43;;;;;;;9.60;4.55;;;23.80;56.80;;;;;;4383815;28;657798;-71
2022/11/02 13:27:35;;;;;;;8.57;4.80;;;24.00;54.50;;;;;;4388912;28;657004;-70
2022/11/02 13:30:22;;;;;;;13.03;5.33;;;22.40;57.20;;;;;;4387155;28;657231;-70
2022/11/02 13:33:13;;;;;;;11.13;5.00;;;21.80;60.40;;;;;;4408681;28;659366;-70
2022/11/02 13:36:00;;;;;;;14.25;6.32;;;20.10;65.00;;;;;;4387748;28;657687;-70
2022/11/02 13:38:49;;;;;;;16.17;5.23;;;19.60;68.60;;;;;;4405104;28;658573;-70
2022/11/02 13:41:46;;;;;;;14.90;6.30;;;20.00;69.50;;;;;;4381663;28;658240;-70
2022/11/02 13:44:58;;;;;;;12.80;6.43;;;19.40;70.20;;;;;;4384780;28;658393;-70
2022/11/02 13:48:06;;;;;;;13.60;6.40;;;17.60;76.70;;;;;;4378681;28;657448;-70
2022/11/02 13:50:54;;;;;;;11.27;6.13;;;17.00;86.00;;;;;;4389177;28;658216;-70
2022/11/02 13:53:45;;;;;;;18.00;6.40;;;16.50;92.70;;;;;;4392624;28;657951;-70
2022/11/02 13:56:35;;;;;;;14.50;5.83;;;16.20;96.30;;;;;;4380443;28;658392;-70
2022/11/02 13:59:23;;;;;;;12.07;5.73;;;16.30;98.80;;;;;;4385662;28;658020;-70
2022/11/02 14:02:14;;;;;;;11.80;6.20;;;16.20;99.90;;;;;;4390657;28;657436;-69
2022/11/02 14:05:01;;;;;;;18.03;6.40;;;16.10;99.90;;;;;;4389737;28;658959;-70
2022/11/02 14:07:49;;;;;;;15.97;6.33;;;16.00;99.90;;;;;;4402912;28;657810;-70
2022/11/02 14:10:37;;;;;;;13.37;6.87;;;15.70;99.90;;;;;;4382755;28;657967;-70
2022/11/02 14:14:08;;;;;;;14.10;6.60;;;16.10;99.90;;;;;;4406394;28;657625;-70
2022/11/02 14:17:15;;;;;;;10.60;6.40;;;17.10;99.90;;;;;;4302591;28;657403;-70
2022/11/02 14:20:04;;;;;;;12.43;6.63;;;18.40;97.80;;;;;;4283782;28;658518;-70
2022/11/02 14:23:24;;;;;;;12.13;6.60;;;18.60;93.70;;;;;;4366331;28;657840;-70
2022/11/02 14:26:32;;;;;;;17.27;7.03;;;18.40;95.00;;;;;;4388335;28;657287;-70